Aviation Digital Data Service (ADDS)

Output produced by METARs form (1833 UTC 18 April 2019)
found at http://www.aviationweather.gov/metar/data/
 
Forecast for: UKDD (DNIPROPETROVSK , UA)
Text: TAF UKDD 181705Z 1818/1918 06004MPS CAVOK TX12/1912Z TN03/1902Z
Forecast period: 1800 UTC 18 April 2019 to 0600 UTC 19 April 2019
Forecast type: FROM: standard forecast or significant change
Winds: from the ENE (60 degrees) at 9 MPH (8 knots; 4.1 m/s)
Visibility: 6 or more miles 10+ km)
Ceiling: unknown
Clouds: missing
Weather: no significant weather forecast for this period
Text: BECMG 1906/1908 08006G12MPS 9999 BKN020
Forecast period: 0600 to 1800 UTC 19 April 2019
Forecast type: BECOMING: Conditions expected to become as follows by 0800 UTC 19 April 2019
Winds: from the E (80 degrees) at 14 MPH (12 knots; 6.2 m/s)
gusting to 26 MPH (23 knots; 11.8 m/s)
Visibility: 6 or more miles 10+ km)
Ceiling: 2000 feet AGL
Clouds: broken clouds at 2000 feet AGL
Weather: no significant weather forecast for this period